Jandaira, Brazil
Current Conditions -  °F | °C
As of 5:00 AM on Sunday 23 Nov 2014 (Local Time) from SBAR Reporting Station
Scattered Clouds Scattered Clouds  
Wind Chill: 72°   Ceiling: Unl
Heat Index: 72°   Visibility: 6mi
Dew Point: 72°   Wind: 3mph
Humidity: 100%   Direction: 340°NNW
Pressure: 29.91"   Gusts: NA
Location:  11.56°S, 37.78°W
Report Text: SBAR 230800Z 34003KT 9999 SCT015 22/22 Q1013
Loading
Personal Weather Stations






























Interactive Weather Map New forecast layout! Learn more

10-Day Weather Forecast

Advertisements
Track Severe Weather on mobile